Orange, New Hampshire
Current Conditions -  °F | °C
As of 8:53 AM on Friday 24 Oct 2014 (Local Time) from KLEB Reporting Station
Overcast Overcast  
Wind Chill: 41°   Ceiling: 1000
Heat Index: 46°   Visibility: 10mi
Dew Point: 41°   Wind: 9mph
Humidity: 83%   Direction: 320°NW
Pressure: 29.78"   Gusts: NA
Location:  43.6625°N, 72.0033°W
Report Text: KLEB 241253Z 32008KT 10SM OVC010 08/05 A2978 RMK AO2 CIG 007V014 SLP084 T00780050
Loading
Personal Weather Stations






























Interactive Weather Map
Tropical Storm Tracking
New forecast layout! Learn more

10-Day Weather Forecast

Advertisements
Track Severe Weather on mobile